Time;durP1;ratioP1;P1;durP2;ratioP2;P2;SDS_P1;SDS_P2;PMS_P1;PMS_P2;Temp;Humidity;BMP_temperature;BMP_pressure;BME280_temperature;BME280_humidity;BME280_pressure;Samples;Min_cycle;Max_cycle;Signal;HPM_P1;HPM_P2
2022/05/25 00:00:38;;;;;;;;;;;;;;;18.97;61.13;100920.78;1055660;28;674;-64
2022/05/25 00:01:30;;;;;;;;;;;;;;;18.96;60.86;100912.81;1056512;28;841;-64
2022/05/25 00:02:20;;;;;;;;;;;;;;;18.96;61.16;100921.78;1055711;28;673;-64
2022/05/25 00:03:11;;;;;;;;;;;;;;;18.96;61.63;100918.22;1056500;28;657;-64
2022/05/25 00:04:01;;;;;;;;;;;;;;;18.96;61.15;100913.69;1056281;28;622;-63
2022/05/25 00:04:51;;;;;;;;;;;;;;;18.94;60.95;100921.06;1056541;28;661;-64
2022/05/25 00:05:42;;;;;;;;;;;;;;;18.95;60.61;100920.09;1056830;28;752;-64
2022/05/25 00:06:32;;;;;;;;;;;;;;;18.94;60.66;100917.53;1056251;28;1898;-64
2022/05/25 00:07:23;;;;;;;;;;;;;;;18.93;60.74;100913.97;1056481;28;697;-64
2022/05/25 00:08:13;;;;;;;;;;;;;;;18.92;61.09;100923.06;1056248;28;622;-64
2022/05/25 00:09:03;;;;;;;;;;;;;;;18.94;60.63;100921.06;1056369;28;649;-64
2022/05/25 00:09:54;;;;;;;;;;;;;;;18.93;60.96;100918.53;1056293;28;658;-64
2022/05/25 00:10:44;;;;;;;;;;;;;;;18.93;60.76;100922.06;1052715;28;755;-64
2022/05/25 00:11:35;;;;;;;;;;;;;;;18.92;61.36;100923.06;1052382;28;650;-64
2022/05/25 00:12:25;;;;;;;;;;;;;;;18.92;61.18;100923.06;1056844;28;1449;-64
2022/05/25 00:13:15;;;;;;;;;;;;;;;18.91;61.24;100921.38;1056345;28;756;-64
2022/05/25 00:14:06;;;;;;;;;;;;;;;18.90;60.51;100925.06;1057514;28;628;-64
2022/05/25 00:14:56;;;;;;;;;;;;;;;18.90;60.87;100925.06;1056370;28;581;-64
2022/05/25 00:15:47;;;;;;;;;;;;;;;18.90;61.20;100930.47;1056580;28;657;-65
2022/05/25 00:16:37;;;;;;;;;;;;;;;18.90;60.21;100929.63;1057525;28;617;-66
2022/05/25 00:17:28;;;;;;;;;;;;;;;18.90;60.45;100925.06;1061587;27;660;-65
2022/05/25 00:18:18;;;;;;;;;;;;;;;18.89;60.66;100917.13;1060841;27;649;-63
2022/05/25 00:20:19;;;;;;;;;;;;;;;18.88;61.11;100916.28;1056637;28;665;-64
2022/05/25 00:21:10;;;;;;;;;;;;;;;18.88;60.98;100918.97;1055852;28;673;-65
2022/05/25 00:22:00;;;;;;;;;;;;;;;18.87;60.48;100919.13;1055638;28;819;-64
2022/05/25 00:22:51;;;;;;;;;;;;;;;18.88;60.65;100923.53;1056317;28;662;-64
2022/05/25 00:23:41;;;;;;;;;;;;;;;18.88;60.65;100931.63;1062103;27;645;-64
2022/05/25 00:24:31;;;;;;;;;;;;;;;18.87;60.71;100919.97;1061020;27;664;-64
2022/05/25 00:25:22;;;;;;;;;;;;;;;18.87;60.13;100924.53;1056752;28;680;-64
2022/05/25 00:26:12;;;;;;;;;;;;;;;18.86;61.03;100931.78;1056096;28;662;-65
2022/05/25 00:27:03;;;;;;;;;;;;;;;18.86;61.31;100930.91;1056409;28;756;-65
2022/05/25 00:27:53;;;;;;;;;;;;;;;18.85;60.54;100931.91;1055414;28;1658;-65
2022/05/25 00:28:43;;;;;;;;;;;;;;;18.83;61.52;100929.38;1052307;28;610;-65
2022/05/25 00:29:36;;;;;;;;;;;;;;;18.84;60.55;100931.06;1052004;28;654;-65
2022/05/25 00:30:26;;;;;;;;;;;;;;;18.83;61.10;100940.16;1052836;28;578;-64
2022/05/25 00:31:17;;;;;;;;;;;;;;;18.84;60.14;100941.88;1053164;28;797;-66
2022/05/25 00:32:07;;;;;;;;;;;;;;;18.83;60.72;100929.38;1056560;28;606;-65
2022/05/25 00:32:58;;;;;;;;;;;;;;;18.83;60.73;100939.31;1056776;28;641;-66
2022/05/25 00:33:48;;;;;;;;;;;;;;;18.82;61.10;100932.22;1052971;28;621;-65
2022/05/25 00:34:39;;;;;;;;;;;;;;;18.82;60.64;100935.78;1052296;28;939;-65
2022/05/25 00:35:29;;;;;;;;;;;;;;;18.82;60.90;100933.06;1053120;28;739;-65
2022/05/25 00:36:19;;;;;;;;;;;;;;;18.81;60.59;100936.78;1052110;28;995;-65
2022/05/25 00:37:10;;;;;;;;;;;;;;;18.80;60.81;100940.50;1056593;28;688;-64
2022/05/25 00:38:00;;;;;;;;;;;;;;;18.80;60.45;100935.09;1056491;28;655;-65
2022/05/25 00:38:51;;;;;;;;;;;;;;;18.80;60.85;100935.09;1052969;28;692;-64
2022/05/25 00:39:41;;;;;;;;;;;;;;;18.80;60.95;100937.78;1051974;28;676;-65
2022/05/25 00:40:32;;;;;;;;;;;;;;;18.79;60.66;100938.78;1052226;28;637;-64
2022/05/25 00:41:22;;;;;;;;;;;;;;;18.81;60.65;100938.66;1051894;28;625;-64
2022/05/25 00:42:13;;;;;;;;;;;;;;;18.79;60.28;100944.19;1052146;28;680;-64
2022/05/25 00:43:03;;;;;;;;;;;;;;;18.78;60.07;100936.25;1051948;28;684;-64
2022/05/25 00:43:53;;;;;;;;;;;;;;;18.78;60.90;100937.09;1051956;28;638;-64
2022/05/25 00:44:44;;;;;;;;;;;;;;;18.79;60.86;100935.25;1052116;28;1084;-64
2022/05/25 00:45:34;;;;;;;;;;;;;;;18.79;61.04;100936.09;1052240;28;1796;-65
2022/05/25 00:46:25;;;;;;;;;;;;;;;18.77;60.92;100939.94;1053848;28;692;-64
2022/05/25 00:47:15;;;;;;;;;;;;;;;18.76;60.29;100941.78;1053695;28;684;-64
2022/05/25 00:48:05;;;;;;;;;;;;;;;18.76;60.33;100939.09;1053231;28;901;-64
2022/05/25 00:48:56;;;;;;;;;;;;;;;18.76;60.43;100940.94;1053829;28;633;-64
2022/05/25 00:49:46;;;;;;;;;;;;;;;18.75;60.71;100940.09;1051980;28;685;-65
2022/05/25 00:51:46;;;;;;;;;;;;;;;18.75;60.48;100945.50;1053027;28;633;-65
2022/05/25 00:52:37;;;;;;;;;;;;;;;18.74;60.93;100941.09;1053868;28;877;-65
2022/05/25 00:53:27;;;;;;;;;;;;;;;18.73;60.31;100942.09;1052664;28;680;-65
2022/05/25 00:54:18;;;;;;;;;;;;;;;18.74;60.27;100954.59;1054396;28;637;-65
2022/05/25 00:55:08;;;;;;;;;;;;;;;18.73;60.41;100952.88;1053686;28;685;-64
2022/05/25 00:55:58;;;;;;;;;;;;;;;18.73;60.00;100947.47;1052012;28;677;-64
2022/05/25 00:56:49;;;;;;;;;;;;;;;18.74;60.75;100943.78;1053344;28;685;-65
2022/05/25 00:57:39;;;;;;;;;;;;;;;18.74;60.52;100946.50;1053280;28;641;-64
2022/05/25 00:58:30;;;;;;;;;;;;;;;18.70;59.98;100945.94;1052046;28;672;-64
2022/05/25 00:59:20;;;;;;;;;;;;;;;18.71;60.95;100944.94;1051759;28;697;-65
2022/05/25 01:00:10;;;;;;;;;;;;;;;18.70;60.09;100945.94;1053129;28;660;-65
2022/05/25 01:01:01;;;;;;;;;;;;;;;18.71;60.78;100946.78;1053194;28;620;-65
2022/05/25 01:01:51;;;;;;;;;;;;;;;18.70;60.76;100942.38;1051962;28;760;-64
2022/05/25 01:02:42;;;;;;;;;;;;;;;18.69;60.96;100944.22;1052086;28;631;-64
2022/05/25 01:03:32;;;;;;;;;;;;;;;18.69;60.87;100948.78;1054808;28;1726;-64
2022/05/25 01:04:23;;;;;;;;;;;;;;;18.69;61.16;100948.78;1056233;28;676;-64
2022/05/25 01:05:13;;;;;;;;;;;;;;;18.67;60.19;100946.22;1060573;27;633;-63
2022/05/25 01:06:03;;;;;;;;;;;;;;;18.67;60.20;100954.31;1060726;27;597;-63
2022/05/25 01:06:54;;;;;;;;;;;;;;;18.67;60.21;100950.78;1056977;28;1886;-64
2022/05/25 01:07:44;;;;;;;;;;;;;;;18.65;60.92;100950.91;1056295;28;661;-64
2022/05/25 01:08:35;;;;;;;;;;;;;;;18.66;60.24;100952.63;1056332;28;610;-64
2022/05/25 01:09:25;;;;;;;;;;;;;;;18.65;60.84;100950.91;1056123;28;629;-63
2022/05/25 01:10:16;;;;;;;;;;;;;;;18.66;60.98;100958.03;1056188;28;697;-63
2022/05/25 01:11:06;;;;;;;;;;;;;;;18.65;60.36;100955.47;1056107;28;756;-63
2022/05/25 01:11:57;;;;;;;;;;;;;;;18.65;60.04;100958.16;1056433;28;689;-62
2022/05/25 01:12:47;;;;;;;;;;;;;;;18.65;60.79;100958.16;1056706;28;645;-63
2022/05/25 01:13:38;;;;;;;;;;;;;;;18.65;60.24;100958.16;1056248;28;687;-63
2022/05/25 01:14:28;;;;;;;;;;;;;;;18.64;60.47;100961.84;1055966;28;594;-63
2022/05/25 01:15:19;;;;;;;;;;;;;;;18.64;60.81;100951.06;1056102;28;664;-63
2022/05/25 01:16:12;;;;;;;;;;;;;;;18.65;60.31;100963.56;1056547;28;656;-63
2022/05/25 01:17:02;;;;;;;;;;;;;;;18.63;60.15;100949.41;1055471;28;645;-62
2022/05/25 01:17:52;;;;;;;;;;;;;;;18.63;61.13;100952.91;1056189;28;626;-63
2022/05/25 01:18:43;;;;;;;;;;;;;;;18.63;60.42;100957.50;1056292;28;694;-63
2022/05/25 01:19:33;;;;;;;;;;;;;;;18.63;60.25;100957.50;1055921;28;660;-63
2022/05/25 01:20:24;;;;;;;;;;;;;;;18.61;60.24;100954.09;1056221;28;678;-63
2022/05/25 01:21:14;;;;;;;;;;;;;;;18.62;60.73;100961.19;1056366;28;1781;-63
2022/05/25 01:22:04;;;;;;;;;;;;;;;18.61;60.85;100957.63;1060043;27;1407;-64
2022/05/25 01:22:55;;;;;;;;;;;;;;;18.60;60.54;100955.09;1056698;28;704;-63
2022/05/25 01:23:45;;;;;;;;;;;;;;;18.60;61.03;100953.25;1056078;28;660;-63
2022/05/25 01:24:36;;;;;;;;;;;;;;;18.60;60.94;100957.78;1061154;27;795;-64
2022/05/25 01:25:26;;;;;;;;;;;;;;;18.59;60.26;100956.94;1060441;27;637;-63
2022/05/25 01:26:17;;;;;;;;;;;;;;;18.60;60.70;100955.94;1056777;28;669;-64
2022/05/25 01:27:07;;;;;;;;;;;;;;;18.59;60.36;100958.78;1056503;28;717;-63
2022/05/25 01:27:57;;;;;;;;;;;;;;;18.58;60.32;100955.19;1057309;28;643;-63
2022/05/25 01:28:48;;;;;;;;;;;;;;;18.58;60.22;100952.50;1056281;28;669;-64
2022/05/25 01:29:38;;;;;;;;;;;;;;;18.59;60.05;100956.09;1055887;28;705;-64
2022/05/25 01:30:29;;;;;;;;;;;;;;;18.57;60.94;100953.50;1057183;28;703;-63
2022/05/25 01:31:19;;;;;;;;;;;;;;;18.58;60.71;100957.03;1055403;28;704;-63
2022/05/25 01:32:09;;;;;;;;;;;;;;;18.58;60.51;100957.03;1055989;28;747;-63
2022/05/25 01:33:00;;;;;;;;;;;;;;;18.57;60.34;100955.34;1056250;28;641;-63
2022/05/25 01:33:50;;;;;;;;;;;;;;;18.56;60.36;100959.88;1055974;28;626;-63
2022/05/25 01:34:41;;;;;;;;;;;;;;;18.56;61.00;100964.44;1056175;28;701;-64
2022/05/25 01:35:31;;;;;;;;;;;;;;;18.56;60.78;100959.88;1056047;28;669;-63
2022/05/25 01:36:22;;;;;;;;;;;;;;;18.55;60.72;100955.50;1056088;28;649;-64
2022/05/25 01:37:12;;;;;;;;;;;;;;;18.54;60.16;100955.63;1055947;28;630;-64
2022/05/25 01:38:04;;;;;;;;;;;;;;;18.55;60.44;100955.50;1056079;28;605;-63
2022/05/25 01:38:54;;;;;;;;;;;;;;;18.54;60.19;100961.88;1051702;28;1524;-64
2022/05/25 01:39:44;;;;;;;;;;;;;;;18.54;60.75;100955.63;1051840;28;654;-64
2022/05/25 01:40:35;;;;;;;;;;;;;;;18.53;59.97;100964.72;1052586;28;1701;-64
2022/05/25 01:41:25;;;;;;;;;;;;;;;18.52;60.95;100961.19;1051752;28;669;-64
2022/05/25 01:42:16;;;;;;;;;;;;;;;18.52;59.99;100961.19;1051995;28;681;-64
2022/05/25 01:43:06;;;;;;;;;;;;;;;18.53;60.11;100970.13;1052479;28;626;-64
2022/05/25 01:43:58;;;;;;;;;;;;;;;18.51;60.91;100964.03;1052159;28;644;-64
2022/05/25 01:44:48;;;;;;;;;;;;;;;18.52;60.63;100965.72;1054360;28;1309;-64
2022/05/25 01:45:40;;;;;;;;;;;;;;;18.51;60.62;100958.63;1051685;28;751;-64
2022/05/25 01:46:31;;;;;;;;;;;;;;;18.50;60.88;100963.16;1044422;28;642;-64
2022/05/25 01:47:21;;;;;;;;;;;;;;;18.50;60.25;100962.31;1044646;28;662;-64
2022/05/25 01:48:12;;;;;;;;;;;;;;;18.50;60.14;100968.56;1044116;28;698;-64
2022/05/25 01:49:02;;;;;;;;;;;;;;;18.50;60.06;100973.13;1045075;28;677;-64
2022/05/25 01:49:53;;;;;;;;;;;;;;;18.50;60.22;100965.00;1044760;28;678;-65
2022/05/25 01:50:44;;;;;;;;;;;;;;;18.50;60.60;100965.88;1044541;28;729;-64
2022/05/25 01:51:34;;;;;;;;;;;;;;;18.50;61.09;100971.25;1044520;28;619;-65
2022/05/25 01:52:24;;;;;;;;;;;;;;;18.49;60.67;100968.72;1043920;28;654;-64
2022/05/25 01:53:15;;;;;;;;;;;;;;;18.49;60.78;100971.41;1044178;28;717;-64
2022/05/25 01:54:06;;;;;;;;;;;;;;;18.49;60.85;100969.56;1044161;28;662;-64
2022/05/25 01:54:56;;;;;;;;;;;;;;;18.48;60.29;100965.16;1044054;28;646;-64
2022/05/25 01:55:47;;;;;;;;;;;;;;;18.48;60.21;100964.31;1044092;28;657;-64
2022/05/25 01:56:37;;;;;;;;;;;;;;;18.48;60.29;100970.56;1043998;28;638;-64
2022/05/25 01:57:28;;;;;;;;;;;;;;;18.48;61.03;100967.00;1044077;28;742;-64
2022/05/25 01:58:18;;;;;;;;;;;;;;;18.47;60.92;100970.69;1044618;28;626;-64
2022/05/25 01:59:09;;;;;;;;;;;;;;;18.48;60.90;100967.00;1044213;28;670;-64
2022/05/25 01:59:59;;;;;;;;;;;;;;;18.48;60.06;100975.09;1045186;28;648;-64
2022/05/25 02:00:49;;;;;;;;;;;;;;;18.47;60.39;100971.56;1044521;28;690;-64
2022/05/25 02:01:40;;;;;;;;;;;;;;;18.48;60.71;100972.41;1044520;28;654;-64
2022/05/25 02:04:48;;;;;;;;;;;;;;;18.45;60.15;100973.53;1045088;28;544;-64
2022/05/25 02:05:39;;;;;;;;;;;;;;;18.45;60.08;100968.16;1044402;28;1668;-64
2022/05/25 02:06:29;;;;;;;;;;;;;;;18.44;61.03;100968.31;1044476;28;767;-64
2022/05/25 02:07:20;;;;;;;;;;;;;;;18.43;60.69;100975.56;1043508;28;611;-64
2022/05/25 02:08:10;;;;;;;;;;;;;;;18.42;60.74;100968.47;1044575;28;824;-64
2022/05/25 02:09:01;;;;;;;;;;;;;;;18.43;60.34;100972.03;1044516;28;713;-64
2022/05/25 02:09:51;;;;;;;;;;;;;;;18.43;60.89;100969.31;1044473;28;790;-64
2022/05/25 02:10:42;;;;;;;;;;;;;;;18.42;60.64;100967.63;1044680;28;749;-64
2022/05/25 02:11:32;;;;;;;;;;;;;;;18.42;60.07;100971.16;1043664;28;648;-64
2022/05/25 02:12:22;;;;;;;;;;;;;;;18.43;60.81;100969.31;1044584;28;618;-63
2022/05/25 02:13:13;;;;;;;;;;;;;;;18.42;60.71;100967.63;1044633;28;654;-64
2022/05/25 02:14:03;;;;;;;;;;;;;;;18.42;60.49;100981.13;1044460;28;691;-64
2022/05/25 02:14:54;;;;;;;;;;;;;;;18.41;59.93;100976.72;1044131;28;638;-64
2022/05/25 02:15:44;;;;;;;;;;;;;;;18.42;60.11;100975.72;1044274;28;646;-64
2022/05/25 02:16:34;;;;;;;;;;;;;;;18.39;60.65;100972.31;1044569;28;661;-64
2022/05/25 02:17:25;;;;;;;;;;;;;;;18.40;60.84;100973.16;1048303;28;654;-64
2022/05/25 02:18:15;;;;;;;;;;;;;;;18.39;61.20;100972.31;1049126;28;610;-64
2022/05/25 02:19:06;;;;;;;;;;;;;;;18.39;60.21;100969.63;1045371;28;830;-64
2022/05/25 02:19:59;;;;;;;;;;;;;;;18.39;60.93;100968.75;1044500;28;656;-64
2022/05/25 02:20:50;;;;;;;;;;;;;;;18.38;60.44;100967.91;1044553;28;669;-64
2022/05/25 02:21:40;;;;;;;;;;;;;;;18.38;60.12;100967.91;1045626;28;715;-64
2022/05/25 02:22:30;;;;;;;;;;;;;;;18.37;60.17;100965.34;1044507;28;626;-64
2022/05/25 02:23:21;;;;;;;;;;;;;;;18.37;60.89;100971.59;1044498;28;701;-64
2022/05/25 02:24:11;;;;;;;;;;;;;;;18.36;60.52;100969.03;1044530;28;694;-64
2022/05/25 02:25:02;;;;;;;;;;;;;;;18.36;60.06;100974.44;1045062;28;634;-64
2022/05/25 02:25:52;;;;;;;;;;;;;;;18.36;60.96;100975.28;1044307;28;1625;-64
2022/05/25 02:26:43;;;;;;;;;;;;;;;18.36;60.95;100971.75;1044909;28;1918;-64
2022/05/25 02:27:33;;;;;;;;;;;;;;;18.35;60.76;100970.91;1044562;28;630;-64
2022/05/25 02:28:24;;;;;;;;;;;;;;;18.35;60.66;100965.50;1044574;28;625;-64
2022/05/25 02:29:14;;;;;;;;;;;;;;;18.34;60.71;100971.03;1044695;28;594;-64
2022/05/25 02:30:05;;;;;;;;;;;;;;;18.34;60.81;100974.59;1044724;28;621;-64
2022/05/25 02:30:55;;;;;;;;;;;;;;;18.34;60.19;100973.75;1044449;28;673;-64
2022/05/25 02:31:45;;;;;;;;;;;;;;;18.34;61.01;100979.97;1045103;28;689;-64
2022/05/25 02:32:36;;;;;;;;;;;;;;;18.32;60.89;100973.88;1044646;28;626;-64
2022/05/25 02:33:27;;;;;;;;;;;;;;;18.32;60.30;100979.28;1044621;28;674;-64
2022/05/25 02:34:20;;;;;;;;;;;;;;;18.32;59.99;100981.97;1045172;28;668;-64
2022/05/25 02:35:10;;;;;;;;;;;;;;;18.32;60.27;100981.97;1048445;28;1179;-64
2022/05/25 02:36:01;;;;;;;;;;;;;;;18.31;60.30;100974.88;1049434;28;1039;-64
2022/05/25 02:36:51;;;;;;;;;;;;;;;18.31;60.89;100985.66;1045135;28;605;-63
2022/05/25 02:37:43;;;;;;;;;;;;;;;18.32;60.22;100979.28;1045075;28;618;-64
2022/05/25 02:38:33;;;;;;;;;;;;;;;18.32;60.42;100984.69;1045028;28;621;-64
2022/05/25 02:39:24;;;;;;;;;;;;;;;18.33;60.72;100985.53;1045110;28;726;-64
2022/05/25 02:40:14;;;;;;;;;;;;;;;18.31;60.69;100982.13;1044541;28;669;-64
2022/05/25 02:41:05;;;;;;;;;;;;;;;18.30;60.93;100977.72;1044958;28;645;-64
2022/05/25 02:41:55;;;;;;;;;;;;;;;18.30;60.41;100975.88;1044914;28;623;-64
2022/05/25 02:42:46;;;;;;;;;;;;;;;18.29;60.29;100986.81;1044266;28;638;-64
2022/05/25 02:43:37;;;;;;;;;;;;;;;18.30;60.66;100986.66;1047598;28;1641;-64
2022/05/25 02:44:27;;;;;;;;;;;;;;;18.29;59.90;100981.41;1048816;28;688;-64
2022/05/25 02:45:17;;;;;;;;;;;;;;;18.28;60.74;100983.25;1052702;28;1125;-64
2022/05/25 02:46:08;;;;;;;;;;;;;;;18.27;60.04;100981.56;1052428;28;602;-63
2022/05/25 02:46:58;;;;;;;;;;;;;;;18.27;60.67;100984.25;1052051;28;1926;-64
2022/05/25 02:47:50;;;;;;;;;;;;;;;18.27;61.09;100978.03;1052794;28;629;-64
2022/05/25 02:48:40;;;;;;;;;;;;;;;18.27;59.99;100991.53;1052595;28;1195;-64
2022/05/25 02:49:31;;;;;;;;;;;;;;;18.25;59.74;100983.56;1052993;28;661;-64
2022/05/25 02:50:21;;;;;;;;;;;;;;;18.26;60.66;100990.66;1053543;28;727;-64
2022/05/25 02:51:12;;;;;;;;;;;;;;;18.27;60.45;100986.94;1052834;28;624;-64
2022/05/25 02:52:02;;;;;;;;;;;;;;;18.26;60.75;100990.66;1052450;28;665;-64
2022/05/25 02:52:52;;;;;;;;;;;;;;;18.26;60.31;100989.81;1052168;28;737;-64
2022/05/25 02:53:43;;;;;;;;;;;;;;;18.26;60.18;100984.44;1052814;28;728;-64
2022/05/25 02:54:33;;;;;;;;;;;;;;;18.26;60.48;100982.59;1052208;28;629;-64
2022/05/25 02:55:24;;;;;;;;;;;;;;;18.24;60.96;100987.25;1052829;28;869;-65
2022/05/25 02:56:14;;;;;;;;;;;;;;;18.24;60.77;100987.25;1053007;28;709;-63
2022/05/25 02:57:04;;;;;;;;;;;;;;;18.26;60.43;100984.44;1052173;28;697;-63
2022/05/25 02:57:58;;;;;;;;;;;;;;;18.25;59.98;100983.56;1052290;28;638;-63
2022/05/25 02:58:49;;;;;;;;;;;;;;;18.24;60.14;100987.25;1052851;28;665;-63
2022/05/25 02:59:39;;;;;;;;;;;;;;;18.25;60.57;100988.13;1044730;28;722;-62
2022/05/25 03:00:30;;;;;;;;;;;;;;;18.24;60.20;100992.66;1046740;28;673;-62
2022/05/25 03:01:20;;;;;;;;;;;;;;;18.24;60.23;100987.25;1050598;28;590;-62
2022/05/25 03:02:11;;;;;;;;;;;;;;;18.24;60.35;100991.81;1048924;28;618;-63
2022/05/25 03:03:01;;;;;;;;;;;;;;;18.24;60.37;100992.66;1048768;28;618;-63
2022/05/25 03:03:52;;;;;;;;;;;;;;;18.24;60.46;100998.06;1050022;28;704;-63
2022/05/25 03:04:42;;;;;;;;;;;;;;;18.22;60.50;100985.72;1048756;28;622;-63
2022/05/25 03:05:33;;;;;;;;;;;;;;;18.22;60.14;100996.50;1048938;28;696;-63
2022/05/25 03:06:23;;;;;;;;;;;;;;;18.22;61.18;100997.34;1049380;28;669;-63
2022/05/25 03:07:14;;;;;;;;;;;;;;;18.22;59.97;100999.19;1048941;28;701;-63
2022/05/25 03:08:05;;;;;;;;;;;;;;;18.22;60.31;100999.19;1049996;28;630;-63
2022/05/25 03:08:56;;;;;;;;;;;;;;;18.22;60.69;100991.09;1054428;28;664;-63
2022/05/25 03:09:46;;;;;;;;;;;;;;;18.22;60.36;100993.78;1053321;28;617;-63
2022/05/25 03:10:36;;;;;;;;;;;;;;;18.21;60.29;101003.75;1049432;28;637;-63
2022/05/25 03:11:27;;;;;;;;;;;;;;;18.21;60.86;100992.94;1049053;28;730;-63
2022/05/25 03:12:17;;;;;;;;;;;;;;;18.21;60.46;101009.13;1048804;28;653;-63
2022/05/25 03:13:08;;;;;;;;;;;;;;;18.22;60.84;100994.66;1048837;28;700;-63
2022/05/25 03:13:58;;;;;;;;;;;;;;;18.22;60.01;100999.19;1049908;28;717;-63
2022/05/25 03:14:49;;;;;;;;;;;;;;;18.20;59.89;100996.63;1048859;28;649;-63
2022/05/25 03:15:39;;;;;;;;;;;;;;;18.20;60.86;101002.03;1049931;28;614;-64
2022/05/25 03:16:30;;;;;;;;;;;;;;;18.19;60.45;101005.72;1050120;28;1667;-64
2022/05/25 03:17:21;;;;;;;;;;;;;;;18.18;59.83;101004.03;1050193;28;648;-64
2022/05/25 03:18:11;;;;;;;;;;;;;;;18.18;60.84;101008.56;1049236;28;638;-63
2022/05/25 03:19:02;;;;;;;;;;;;;;;18.18;60.57;101004.03;1048904;28;720;-63
2022/05/25 03:19:52;;;;;;;;;;;;;;;18.17;60.13;101002.31;1048691;28;681;-63
2022/05/25 03:20:44;;;;;;;;;;;;;;;18.19;60.97;101008.44;1048983;28;642;-63
2022/05/25 03:21:34;;;;;;;;;;;;;;;18.17;60.84;101013.09;1049430;28;658;-64
2022/05/25 03:22:24;;;;;;;;;;;;;;;18.17;60.59;101007.72;1048690;28;607;-63
2022/05/25 03:23:17;;;;;;;;;;;;;;;18.17;60.52;101007.72;1049026;28;665;-63
2022/05/25 03:24:07;;;;;;;;;;;;;;;18.17;60.97;101007.72;1048680;28;633;-64
2022/05/25 03:24:58;;;;;;;;;;;;;;;18.16;60.11;101014.09;1049971;28;625;-63
2022/05/25 03:25:48;;;;;;;;;;;;;;;18.16;60.58;101006.00;1048639;28;677;-63
2022/05/25 03:26:39;;;;;;;;;;;;;;;18.17;60.39;101006.84;1048651;28;1890;-62
2022/05/25 03:27:29;;;;;;;;;;;;;;;18.16;60.23;101011.41;1049047;28;730;-64
2022/05/25 03:28:19;;;;;;;;;;;;;;;18.16;60.62;101006.00;1048726;28;630;-64
2022/05/25 03:29:11;;;;;;;;;;;;;;;18.16;61.08;101014.09;1049041;28;657;-64
2022/05/25 03:30:02;;;;;;;;;;;;;;;18.15;59.87;101015.09;1048655;28;654;-64
2022/05/25 03:30:52;;;;;;;;;;;;;;;18.16;60.83;101007.84;1048826;28;655;-65
2022/05/25 03:31:42;;;;;;;;;;;;;;;18.15;60.03;101008.84;1049280;28;626;-66
2022/05/25 03:32:33;;;;;;;;;;;;;;;18.16;59.97;101013.25;1049349;28;650;-65
2022/05/25 03:33:23;;;;;;;;;;;;;;;18.15;60.38;101009.69;1053130;28;692;-65
2022/05/25 03:34:14;;;;;;;;;;;;;;;18.16;60.78;101013.25;1054417;28;672;-65
2022/05/25 03:35:04;;;;;;;;;;;;;;;18.15;59.92;101008.84;1049868;28;609;-64
2022/05/25 03:35:55;;;;;;;;;;;;;;;18.14;59.81;101018.78;1048602;28;662;-64
2022/05/25 03:36:45;;;;;;;;;;;;;;;18.14;60.07;101009.84;1049774;28;651;-64
2022/05/25 03:37:35;;;;;;;;;;;;;;;18.14;60.64;101016.09;1050007;28;606;-64
2022/05/25 03:38:30;;;;;;;;;;;;;;;18.14;59.99;101018.78;1048898;28;732;-65
2022/05/25 03:39:22;;;;;;;;;;;;;;;18.13;59.97;101017.06;1049890;28;625;-64
2022/05/25 03:40:12;;;;;;;;;;;;;;;18.14;60.35;101018.78;1049874;28;673;-65
2022/05/25 03:41:02;;;;;;;;;;;;;;;18.13;60.28;101016.22;1049733;28;701;-65
2022/05/25 03:41:53;;;;;;;;;;;;;;;18.13;60.92;101019.78;1049414;28;645;-64
2022/05/25 03:42:43;;;;;;;;;;;;;;;18.14;60.27;101020.63;1049800;28;834;-65
2022/05/25 03:43:34;;;;;;;;;;;;;;;18.13;59.93;101017.06;1049951;28;632;-64
2022/05/25 03:44:24;;;;;;;;;;;;;;;18.12;60.36;101017.22;1049822;28;673;-64
2022/05/25 03:45:15;;;;;;;;;;;;;;;18.12;60.57;101023.47;1048459;28;1267;-64
2022/05/25 03:46:05;;;;;;;;;;;;;;;18.12;59.89;101022.63;1049859;28;644;-64
2022/05/25 03:46:56;;;;;;;;;;;;;;;18.11;60.63;101029.84;1049708;28;1906;-64
2022/05/25 03:47:46;;;;;;;;;;;;;;;18.13;60.26;101016.22;1048748;28;717;-64
2022/05/25 03:48:37;;;;;;;;;;;;;;;18.12;59.90;101019.91;1050310;28;1277;-64
2022/05/25 03:49:27;;;;;;;;;;;;;;;18.11;60.44;101021.75;1053490;28;721;-64
2022/05/25 03:50:21;;;;;;;;;;;;;;;18.11;60.65;101024.47;1053406;28;657;-64
2022/05/25 03:51:11;;;;;;;;;;;;;;;18.11;60.99;101027.16;1053276;28;630;-64
2022/05/25 03:52:03;;;;;;;;;;;;;;;18.10;60.34;101028.16;1052597;28;1690;-63
2022/05/25 03:52:54;;;;;;;;;;;;;;;18.11;60.37;101023.59;1049159;28;606;-63
2022/05/25 03:53:44;;;;;;;;;;;;;;;18.11;60.43;101021.75;1049249;28;705;-63
2022/05/25 03:54:35;;;;;;;;;;;;;;;18.11;60.76;101029.00;1049351;28;721;-63
2022/05/25 03:55:25;;;;;;;;;;;;;;;18.11;59.97;101027.16;1048772;28;729;-63
2022/05/25 03:56:16;;;;;;;;;;;;;;;18.11;60.34;101023.59;1048115;28;619;-64
2022/05/25 03:57:07;;;;;;;;;;;;;;;18.11;60.95;101029.00;1053610;28;546;-63
2022/05/25 03:57:57;;;;;;;;;;;;;;;18.10;59.88;101028.16;1054166;28;709;-63
2022/05/25 03:58:48;;;;;;;;;;;;;;;18.09;60.13;101021.09;1050494;28;668;-63
2022/05/25 03:59:38;;;;;;;;;;;;;;;18.10;60.52;101022.75;1049854;28;661;-63
2022/05/25 04:00:28;;;;;;;;;;;;;;;18.10;60.51;101027.31;1048634;28;648;-63
2022/05/25 04:01:19;;;;;;;;;;;;;;;18.10;60.16;101024.59;1049923;28;649;-63
2022/05/25 04:02:09;;;;;;;;;;;;;;;18.09;60.29;101026.47;1048400;28;705;-63
2022/05/25 04:03:02;;;;;;;;;;;;;;;18.08;60.04;101022.06;1049723;28;672;-63
2022/05/25 04:03:52;;;;;;;;;;;;;;;18.10;60.50;101028.16;1049705;28;656;-63
2022/05/25 04:04:43;;;;;;;;;;;;;;;18.09;60.53;101015.69;1049273;28;640;-63
2022/05/25 04:05:34;;;;;;;;;;;;;;;18.09;60.35;101021.09;1049356;28;626;-64
2022/05/25 04:06:24;;;;;;;;;;;;;;;18.08;60.95;101024.78;1049284;28;622;-64
2022/05/25 04:07:14;;;;;;;;;;;;;;;18.09;60.97;101031.03;1049229;28;665;-63
2022/05/25 04:08:05;;;;;;;;;;;;;;;18.09;60.72;101026.47;1049163;28;669;-63
2022/05/25 04:08:55;;;;;;;;;;;;;;;18.10;60.92;101032.69;1048537;28;708;-63
2022/05/25 04:09:46;;;;;;;;;;;;;;;18.09;60.17;101031.88;1049465;28;1641;-63
2022/05/25 04:10:36;;;;;;;;;;;;;;;18.08;60.34;101038.25;1049327;28;624;-63
2022/05/25 04:11:27;;;;;;;;;;;;;;;18.10;60.26;101038.09;1049538;28;660;-65
2022/05/25 04:12:18;;;;;;;;;;;;;;;18.09;60.20;101031.03;1049214;28;677;-64
2022/05/25 04:13:09;;;;;;;;;;;;;;;18.09;60.09;101036.41;1049761;28;676;-64
2022/05/25 04:13:59;;;;;;;;;;;;;;;18.10;60.35;101035.38;1049732;28;680;-65
2022/05/25 04:14:50;;;;;;;;;;;;;;;18.09;60.61;101039.97;1049836;28;605;-64
2022/05/25 04:15:40;;;;;;;;;;;;;;;18.11;60.21;101042.50;1049823;28;602;-64
2022/05/25 04:16:31;;;;;;;;;;;;;;;18.10;59.97;101038.09;1049789;28;645;-64
2022/05/25 04:17:22;;;;;;;;;;;;;;;18.10;60.41;101041.63;1049169;28;704;-65
2022/05/25 04:18:12;;;;;;;;;;;;;;;18.10;60.24;101038.94;1049859;28;732;-65
2022/05/25 04:19:03;;;;;;;;;;;;;;;18.11;60.86;101045.19;1049764;28;633;-64
2022/05/25 04:19:53;;;;;;;;;;;;;;;18.11;60.89;101037.94;1049796;28;766;-64
2022/05/25 04:20:43;;;;;;;;;;;;;;;18.09;60.57;101036.41;1049741;28;709;-64
2022/05/25 04:21:34;;;;;;;;;;;;;;;18.11;60.93;101035.25;1049768;28;641;-64
2022/05/25 04:22:24;;;;;;;;;;;;;;;18.10;60.46;101036.25;1048486;28;635;-65
2022/05/25 04:23:15;;;;;;;;;;;;;;;18.10;60.34;101038.09;1049767;28;696;-64
2022/05/25 04:24:05;;;;;;;;;;;;;;;18.10;59.89;101038.09;1049651;28;633;-64
2022/05/25 04:24:56;;;;;;;;;;;;;;;18.10;60.21;101038.94;1049691;28;649;-64
2022/05/25 04:25:46;;;;;;;;;;;;;;;18.10;59.84;101041.63;1048762;28;720;-64
2022/05/25 04:26:37;;;;;;;;;;;;;;;18.10;60.37;101033.53;1048074;28;667;-65
2022/05/25 04:27:27;;;;;;;;;;;;;;;18.11;60.06;101035.25;1050418;28;735;-66
2022/05/25 04:28:17;;;;;;;;;;;;;;;18.10;60.99;101038.09;1048601;28;666;-65
2022/05/25 04:29:08;;;;;;;;;;;;;;;18.08;60.12;101034.72;1048575;28;646;-65
2022/05/25 04:29:58;;;;;;;;;;;;;;;18.10;60.34;101032.69;1048997;28;775;-64
2022/05/25 04:30:49;;;;;;;;;;;;;;;18.10;60.28;101038.94;1048625;28;570;-64